Time;durP1;ratioP1;P1;durP2;ratioP2;P2;SDS_P1;SDS_P2;PMS_P1;PMS_P2;Temp;Humidity;BMP_temperature;BMP_pressure;BME280_temperature;BME280_humidity;BME280_pressure;Samples;Min_cycle;Max_cycle;Signal;HPM_P1;HPM_P2
2021/10/20 00:01:06;;;;;;;29.05;11.05;;;;;;;9.63;71.93;99226.58;2203004;80;21033;-66
2021/10/20 00:04:07;;;;;;;29.98;11.55;;;;;;;9.62;71.99;99228.81;2220615;80;21060;-66
2021/10/20 00:07:07;;;;;;;31.82;11.60;;;;;;;9.65;72.01;99226.50;2213031;80;21076;-67
2021/10/20 00:10:08;;;;;;;34.73;12.55;;;;;;;9.67;72.04;99224.67;2208602;80;21028;-68
2021/10/20 00:13:08;;;;;;;32.35;13.18;;;;;;;9.66;71.99;99218.56;2213048;80;20941;-66
2021/10/20 00:16:08;;;;;;;35.75;15.23;;;;;;;9.64;72.06;99207.78;2215706;80;21052;-68
2021/10/20 00:19:09;;;;;;;35.83;15.23;;;;;;;9.60;71.99;99208.89;2215430;80;20953;-66
2021/10/20 00:22:09;;;;;;;38.28;16.17;;;;;;;9.54;71.97;99199.09;2211878;80;20976;-66
2021/10/20 00:25:10;;;;;;;36.55;15.15;;;;;;;9.50;72.08;99198.86;2206226;80;21028;-66
2021/10/20 00:28:10;;;;;;;35.68;13.90;;;;;;;9.47;72.05;99196.88;2203349;80;21550;-68
2021/10/20 00:31:11;;;;;;;33.02;13.03;;;;;;;9.45;72.18;99190.85;2216994;80;21024;-66
2021/10/20 00:34:11;;;;;;;34.08;14.15;;;;;;;9.43;72.20;99192.72;2213080;80;21575;-66
2021/10/20 00:37:12;;;;;;;34.88;13.90;;;;;;;9.44;72.20;99191.33;2214409;80;21463;-67
2021/10/20 00:40:14;;;;;;;32.80;14.03;;;;;;;9.40;72.23;99187.64;2211544;80;21063;-66
2021/10/20 00:43:14;;;;;;;33.67;14.70;;;;;;;9.35;72.37;99176.93;2223384;79;21059;-66
2021/10/20 00:46:15;;;;;;;34.95;14.65;;;;;;;9.30;72.49;99171.06;2215201;80;21055;-66
2021/10/20 00:49:15;;;;;;;34.20;14.03;;;;;;;9.27;72.58;99162.54;2210621;80;21028;-66
2021/10/20 00:52:16;;;;;;;33.63;13.53;;;;;;;9.23;72.59;99157.06;2209588;80;21048;-66
2021/10/20 00:55:16;;;;;;;31.90;13.15;;;;;;;9.21;72.71;99151.91;2208371;80;21035;-65
2021/10/20 00:58:17;;;;;;;33.98;13.55;;;;;;;9.22;72.78;99148.82;2207112;80;21516;-66
2021/10/20 01:01:18;;;;;;;34.35;14.15;;;;;;;9.23;72.85;99146.59;2207752;81;21016;-66
2021/10/20 01:04:18;;;;;;;31.50;13.58;;;;;;;9.26;72.88;99149.05;2209581;80;21068;-66
2021/10/20 01:07:19;;;;;;;34.98;13.68;;;;;;;9.31;72.81;99143.11;2210918;80;20987;-66
2021/10/20 01:10:19;;;;;;;36.30;14.75;;;;;;;9.31;72.79;99149.21;2210595;80;20988;-66
2021/10/20 01:13:20;;;;;;;39.40;14.85;;;;;;;9.33;72.87;99149.97;2206163;81;21534;-66
2021/10/20 01:16:20;;;;;;;39.53;15.38;;;;;;;9.34;72.73;99146.44;2210459;80;21476;-66
2021/10/20 01:19:20;;;;;;;34.70;14.10;;;;;;;9.34;72.95;99143.81;2207388;80;20961;-66
2021/10/20 01:22:21;;;;;;;34.23;14.90;;;;;;;9.32;72.97;99141.75;2208046;80;21084;-65
2021/10/20 01:25:21;;;;;;;32.13;13.15;;;;;;;9.33;72.98;99134.26;2208656;80;21047;-66
2021/10/20 01:28:23;;;;;;;32.05;13.72;;;;;;;9.35;73.08;99130.25;2210505;80;21040;-66
2021/10/20 01:31:23;;;;;;;32.05;14.00;;;;;;;9.34;73.26;99126.80;2208248;80;20988;-66
2021/10/20 01:34:23;;;;;;;31.90;13.85;;;;;;;9.36;73.30;99130.64;2207401;80;21522;-66
2021/10/20 01:37:24;;;;;;;32.53;13.70;;;;;;;9.41;73.29;99129.09;2207605;80;21023;-66
2021/10/20 01:40:24;;;;;;;34.58;13.58;;;;;;;9.43;73.13;99120.72;2209927;80;21070;-66
2021/10/20 01:43:25;;;;;;;30.23;13.53;;;;;;;9.42;73.39;99121.62;2209352;80;20992;-66
2021/10/20 01:46:25;;;;;;;32.00;13.13;;;;;;;9.37;73.50;99117.95;2208980;80;21075;-66
2021/10/20 01:49:25;;;;;;;34.13;13.68;;;;;;;9.32;73.68;99109.47;2208493;80;21080;-65
2021/10/20 01:52:26;;;;;;;32.42;12.82;;;;;;;9.28;73.79;99099.64;2208874;80;21468;-65
2021/10/20 01:55:26;;;;;;;32.58;13.08;;;;;;;9.26;74.10;99100.63;2207518;80;20973;-67
2021/10/20 01:58:27;;;;;;;30.95;12.07;;;;;;;9.24;74.10;99093.30;2209773;80;20996;-66
2021/10/20 02:01:27;;;;;;;34.23;13.93;;;;;;;9.27;74.15;99087.94;2208587;80;21075;-66
2021/10/20 02:04:28;;;;;;;32.67;13.65;;;;;;;9.26;74.34;99078.38;2210759;80;20961;-65
2021/10/20 02:07:28;;;;;;;33.75;13.25;;;;;;;9.28;74.31;99070.84;2209454;80;21040;-66
2021/10/20 02:10:28;;;;;;;32.05;12.85;;;;;;;9.27;74.40;99065.69;2207873;80;21504;-66
2021/10/20 02:13:29;;;;;;;28.40;11.80;;;;;;;9.25;74.44;99055.74;2209462;80;20972;-66
2021/10/20 02:16:29;;;;;;;33.78;12.13;;;;;;;9.24;74.48;99050.98;2210374;80;21393;-65
2021/10/20 02:19:30;;;;;;;28.65;11.25;;;;;;;9.27;74.51;99064.38;2209845;80;20999;-65
2021/10/20 02:22:30;;;;;;;31.77;11.85;;;;;;;9.29;74.47;99065.97;2207243;80;20942;-66
2021/10/20 02:25:31;;;;;;;30.25;11.75;;;;;;;9.32;74.58;99056.67;2207393;80;20949;-66
2021/10/20 02:28:32;;;;;;;31.10;12.23;;;;;;;9.30;74.59;99070.29;2202609;80;21516;-66
2021/10/20 02:31:32;;;;;;;28.98;11.85;;;;;;;9.34;74.67;99066.59;2209858;80;20969;-66
2021/10/20 02:34:32;;;;;;;33.00;11.60;;;;;;;9.35;74.55;99055.64;2209332;80;20957;-66
2021/10/20 02:37:33;;;;;;;31.87;11.88;;;;;;;9.29;74.57;99054.19;2209807;80;20961;-65
2021/10/20 02:40:33;;;;;;;31.87;11.95;;;;;;;9.23;74.80;99053.21;2210353;80;21043;-65
2021/10/20 02:43:36;;;;;;;32.60;12.80;;;;;;;9.23;74.86;99053.21;2209690;80;21040;-66
2021/10/20 02:46:36;;;;;;;30.92;12.25;;;;;;;9.23;75.06;99045.83;2208496;80;20973;-66
2021/10/20 02:49:37;;;;;;;34.43;13.68;;;;;;;9.26;75.09;99052.21;2209064;80;20985;-66
2021/10/20 02:52:38;;;;;;;35.30;13.88;;;;;;;9.30;75.28;99046.73;2207698;80;21039;-66
2021/10/20 02:55:40;;;;;;;30.97;12.78;;;;;;;9.34;75.24;99046.95;2208766;80;21479;-66
2021/10/20 02:58:40;;;;;;;30.60;12.90;;;;;;;9.39;75.27;99044.56;2208674;80;20988;-66
2021/10/20 03:01:41;;;;;;;30.00;12.35;;;;;;;9.45;75.46;99045.54;2209691;80;20973;-66
2021/10/20 03:04:41;;;;;;;29.77;11.35;;;;;;;9.51;75.59;99037.34;2210546;80;21049;-66
2021/10/20 03:07:41;;;;;;;27.05;9.80;;;;;;;9.61;75.63;99030.72;2206676;80;21483;-66
2021/10/20 03:10:42;;;;;;;24.63;7.55;;;;;;;9.75;75.94;99022.57;2250383;79;21012;-68
2021/10/20 03:13:42;;;;;;;24.63;8.98;;;;;;;9.93;75.24;99025.94;2218061;80;21036;-66
2021/10/20 03:16:43;;;;;;;23.85;8.58;;;;;;;10.09;74.96;99026.80;2258357;79;21004;-66
2021/10/20 03:19:44;;;;;;;23.32;8.08;;;;;;;10.21;74.62;99016.08;2217550;80;20981;-66
2021/10/20 03:22:44;;;;;;;25.05;8.15;;;;;;;10.34;74.39;99010.58;2247616;79;21050;-65
2021/10/20 03:25:45;;;;;;;24.82;8.18;;;;;;;10.39;74.30;99005.06;2216085;80;21474;-66
2021/10/20 03:28:45;;;;;;;23.42;7.53;;;;;;;10.48;74.29;99011.55;2254277;79;21483;-65
2021/10/20 03:31:46;;;;;;;21.85;7.37;;;;;;;10.56;73.84;99008.03;2219109;80;20980;-66
2021/10/20 03:34:46;;;;;;;21.82;6.90;;;;;;;10.68;73.98;98996.80;2258382;79;21020;-66
2021/10/20 03:37:47;;;;;;;22.35;7.05;;;;;;;10.79;73.71;98994.00;2216325;80;21056;-65
2021/10/20 03:40:47;;;;;;;22.60;7.30;;;;;;;10.89;73.70;98997.80;2254395;79;21031;-67
2021/10/20 03:43:48;;;;;;;23.30;7.17;;;;;;;10.97;73.40;98990.29;2216816;80;20984;-66
2021/10/20 03:46:48;;;;;;;24.07;7.33;;;;;;;11.05;73.18;98984.59;2245188;79;21013;-65
2021/10/20 03:49:49;;;;;;;23.30;8.10;;;;;;;11.13;72.91;98982.81;2218600;80;20988;-66
2021/10/20 03:52:49;;;;;;;23.15;7.12;;;;;;;11.17;72.97;98978.58;2253671;79;21507;-66
2021/10/20 03:55:49;;;;;;;23.27;7.30;;;;;;;11.21;72.76;98969.59;2218975;80;21040;-66
2021/10/20 03:58:50;;;;;;;19.50;6.85;;;;;;;11.28;72.67;98967.44;2252103;79;20992;-65
2021/10/20 04:01:52;;;;;;;25.88;7.28;;;;;;;11.35;72.79;98967.88;2216536;80;21024;-65
2021/10/20 04:04:52;;;;;;;22.43;6.80;;;;;;;11.43;72.18;98963.01;2258278;79;21045;-64
2021/10/20 04:07:52;;;;;;;22.20;7.35;;;;;;;11.50;72.50;98970.88;2216528;80;21259;-66
2021/10/20 04:10:53;;;;;;;21.77;7.80;;;;;;;11.56;72.03;98964.39;2254059;79;20982;-66
2021/10/20 04:13:53;;;;;;;23.47;6.90;;;;;;;11.59;72.21;98971.63;2215049;80;21067;-65
2021/10/20 04:16:54;;;;;;;23.05;7.45;;;;;;;11.62;72.04;98964.00;2242653;79;21483;-65
2021/10/20 04:19:54;;;;;;;21.45;6.80;;;;;;;11.66;72.15;98962.88;2215646;80;21008;-65
2021/10/20 04:22:55;;;;;;;22.27;7.58;;;;;;;11.70;72.14;98970.10;2253379;79;21071;-66
2021/10/20 04:25:55;;;;;;;21.62;7.50;;;;;;;11.76;71.86;98958.72;2215895;80;20980;-65
2021/10/20 04:28:55;;;;;;;23.83;7.28;;;;;;;11.80;71.86;98960.69;2257718;79;20966;-65
2021/10/20 04:31:56;;;;;;;21.75;7.78;;;;;;;11.81;72.08;98952.33;2216071;80;21043;-66
2021/10/20 04:34:56;;;;;;;33.35;13.38;;;;;;;11.81;72.00;98962.39;2249072;79;21507;-66
2021/10/20 04:37:57;;;;;;;33.63;12.73;;;;;;;11.82;72.42;98952.70;2217170;80;21507;-66
2021/10/20 04:40:57;;;;;;;24.47;8.15;;;;;;;11.82;72.48;98949.59;2202068;80;20937;-66
2021/10/20 04:43:58;;;;;;;23.73;8.03;;;;;;;11.83;72.35;98943.41;2250139;79;21021;-65
2021/10/20 04:46:58;;;;;;;28.67;13.90;;;;;;;11.86;72.22;98934.48;2215657;80;20941;-65
2021/10/20 04:50:00;;;;;;;25.43;8.83;;;;;;;11.89;72.34;98931.17;2206821;80;21036;-65
2021/10/20 04:53:03;;;;;;;26.35;9.45;;;;;;;11.90;72.53;98934.19;2254207;79;21504;-65
2021/10/20 04:56:03;;;;;;;24.00;9.18;;;;;;;11.92;72.62;98923.57;2254202;79;21017;-66
2021/10/20 04:59:04;;;;;;;24.12;8.10;;;;;;;11.92;72.53;98934.08;2216164;80;21015;-65
2021/10/20 05:02:04;;;;;;;25.50;10.80;;;;;;;11.93;72.60;98937.09;2254262;79;21514;-66
2021/10/20 05:05:05;;;;;;;23.95;9.45;;;;;;;11.97;72.63;98932.05;2218480;80;21491;-65
2021/10/20 05:08:05;;;;;;;25.23;10.88;;;;;;;11.99;72.84;98924.89;2258127;79;20989;-67
2021/10/20 05:11:06;;;;;;;39.58;18.45;;;;;;;12.00;72.71;98916.55;2216617;80;21007;-65
2021/10/20 05:14:06;;;;;;;24.18;8.23;;;;;;;12.00;72.84;98911.29;2210002;80;21008;-65
2021/10/20 05:17:06;;;;;;;23.38;7.85;;;;;;;12.01;72.81;98919.08;2250235;79;20957;-64
2021/10/20 05:20:07;;;;;;;25.27;9.80;;;;;;;12.03;72.85;98921.60;2253649;79;21466;-68
2021/10/20 05:23:10;;;;;;;23.83;9.05;;;;;;;12.03;72.90;98910.60;2259261;78;21494;-65
2021/10/20 05:26:10;;;;;;;22.95;9.03;;;;;;;12.03;72.96;98906.66;2220526;80;21008;-68
2021/10/20 05:29:10;;;;;;;21.82;8.13;;;;;;;12.02;72.96;98908.08;2257033;79;20976;-66
2021/10/20 05:32:11;;;;;;;21.45;7.55;;;;;;;12.00;73.05;98912.13;2215539;80;21066;-65
2021/10/20 05:35:18;;;;;;;22.75;7.50;;;;;;;11.99;73.29;98910.91;2252779;79;20976;-66
2021/10/20 05:38:14;;;;;;;21.60;7.15;;;;;;;11.99;73.27;98907.80;2187850;80;21535;-68
2021/10/20 05:41:14;;;;;;;24.80;8.80;;;;;;;11.99;73.45;98905.66;2257146;79;21004;-69
2021/10/20 05:44:15;;;;;;;32.08;11.35;;;;;;;12.00;73.44;98901.61;2214506;80;21023;-67
2021/10/20 05:47:15;;;;;;;41.15;15.03;;;;;;;12.03;73.60;98904.52;2208685;80;21011;-65
2021/10/20 05:50:16;;;;;;;26.97;9.50;;;;;;;12.05;73.60;98904.79;2207737;80;20981;-65
2021/10/20 05:53:16;;;;;;;24.57;8.15;;;;;;;12.09;73.69;98909.36;2261346;79;21463;-66
2021/10/20 05:56:17;;;;;;;27.45;8.83;;;;;;;12.14;73.89;98920.43;2216301;80;21030;-65
2021/10/20 05:59:22;;;;;;;21.95;7.50;;;;;;;12.19;73.93;98916.17;2261008;79;21022;-66
2021/10/20 06:02:20;;;;;;;25.45;8.30;;;;;;;12.26;73.86;98906.93;2191153;80;21522;-66
2021/10/20 06:05:20;;;;;;;24.57;9.55;;;;;;;12.33;73.90;98909.52;2248309;79;21031;-66
2021/10/20 06:08:21;;;;;;;24.30;7.83;;;;;;;12.40;73.96;98902.08;2216782;80;20989;-66
2021/10/20 06:11:21;;;;;;;23.55;7.97;;;;;;;12.43;74.39;98909.27;2252699;79;20972;-66
2021/10/20 06:14:21;;;;;;;23.07;7.72;;;;;;;12.50;74.39;98894.38;2217888;80;21027;-66
2021/10/20 06:17:22;;;;;;;26.62;8.70;;;;;;;12.57;74.52;98903.08;2252904;79;21458;-67
2021/10/20 06:20:22;;;;;;;20.90;6.92;;;;;;;12.64;74.60;98892.96;2216372;80;21499;-66
2021/10/20 06:23:23;;;;;;;22.42;7.62;;;;;;;12.71;74.45;98882.38;2249766;79;20937;-66
2021/10/20 06:26:23;;;;;;;23.67;7.70;;;;;;;12.78;74.68;98890.70;2217810;80;21024;-66
2021/10/20 06:29:26;;;;;;;22.77;8.08;;;;;;;12.81;74.76;98884.77;2254460;79;20972;-66
2021/10/20 06:32:26;;;;;;;24.85;8.38;;;;;;;12.86;74.93;98882.27;2195826;80;21471;-65
2021/10/20 06:35:27;;;;;;;20.68;7.17;;;;;;;12.91;75.15;98890.70;2248352;79;21047;-65
2021/10/20 06:38:27;;;;;;;26.10;8.25;;;;;;;12.96;75.21;98890.75;2216935;80;21046;-66
2021/10/20 06:41:28;;;;;;;22.15;7.55;;;;;;;13.04;75.47;98895.95;2254665;79;21055;-65
2021/10/20 06:44:28;;;;;;;21.17;7.50;;;;;;;13.10;75.76;98908.23;2217063;80;21487;-65
2021/10/20 06:47:28;;;;;;;21.70;6.47;;;;;;;13.13;75.64;98898.79;2247312;79;21017;-65
2021/10/20 06:50:29;;;;;;;20.62;6.17;;;;;;;13.17;76.14;98901.58;2214725;80;21078;-66
2021/10/20 06:53:29;;;;;;;18.62;6.05;;;;;;;13.21;76.46;98915.84;2249011;79;21008;-66
2021/10/20 06:56:30;;;;;;;18.55;5.62;;;;;;;13.27;76.49;98914.08;2215649;80;20980;-65
2021/10/20 06:59:30;;;;;;;19.90;6.12;;;;;;;13.33;76.66;98914.95;2249701;79;20973;-66
2021/10/20 07:02:31;;;;;;;20.62;5.92;;;;;;;13.43;76.65;98910.77;2260575;78;21491;-68
2021/10/20 07:05:31;;;;;;;20.00;5.92;;;;;;;13.56;76.69;98922.59;2215094;80;20975;-68
2021/10/20 07:08:32;;;;;;;19.73;5.87;;;;;;;13.68;76.10;98920.86;2261565;79;20977;-66
2021/10/20 07:11:32;;;;;;;18.35;5.78;;;;;;;13.79;75.98;98918.75;2217158;80;20972;-66
2021/10/20 07:14:33;;;;;;;19.60;6.15;;;;;;;13.87;75.67;98929.58;2257230;79;21016;-67
2021/10/20 07:17:33;;;;;;;17.60;5.60;;;;;;;13.93;75.78;98914.62;2216204;80;20992;-65
2021/10/20 07:20:33;;;;;;;18.05;5.28;;;;;;;14.03;75.35;98908.20;2261317;79;21071;-66
2021/10/20 07:23:34;;;;;;;16.52;4.97;;;;;;;14.16;74.96;98922.64;2216480;80;20976;-65
2021/10/20 07:26:34;;;;;;;17.90;5.95;;;;;;;14.26;75.54;98901.20;2233383;79;21071;-65
2021/10/20 07:29:35;;;;;;;18.07;5.40;;;;;;;14.37;75.51;98899.09;2217268;80;21451;-66
2021/10/20 07:32:37;;;;;;;18.05;5.15;;;;;;;14.54;75.37;98884.62;2250113;79;20953;-65
2021/10/20 07:35:37;;;;;;;21.57;6.10;;;;;;;14.67;74.41;98895.11;2215601;80;20983;-65
2021/10/20 07:38:38;;;;;;;20.15;5.67;;;;;;;14.78;74.03;98904.34;2256797;79;21512;-66
2021/10/20 07:41:38;;;;;;;24.18;5.95;;;;;;;14.83;74.24;98897.41;2217529;80;21577;-66
2021/10/20 07:44:39;;;;;;;19.12;5.37;;;;;;;14.84;74.39;98899.92;2240920;79;21031;-65
2021/10/20 07:47:39;;;;;;;18.60;5.30;;;;;;;14.89;73.59;98884.55;2217743;80;21011;-68
2021/10/20 07:50:42;;;;;;;19.95;5.50;;;;;;;14.92;73.69;98890.56;2250215;79;21000;-64
2021/10/20 07:53:42;;;;;;;;;;;;;;;14.94;73.37;98888.63;2202578;80;21552;-68
2021/10/20 07:56:43;;;;;;;21.62;6.30;;;;;;;14.99;73.70;98886.48;2214152;80;20094;-65
2021/10/20 07:59:44;;;;;;;20.30;5.62;;;;;;;15.02;73.39;98889.71;2248825;79;21538;-66
2021/10/20 08:02:44;;;;;;;20.00;5.50;;;;;;;15.04;73.29;98891.77;2216852;80;20976;-65
2021/10/20 08:05:45;;;;;;;17.12;4.95;;;;;;;15.14;73.32;98886.61;2244171;79;20997;-65
2021/10/20 08:08:45;;;;;;;18.35;5.30;;;;;;;15.23;72.41;98893.80;2245819;79;20972;-65
2021/10/20 08:11:46;;;;;;;21.35;5.83;;;;;;;15.34;72.77;98889.45;2216844;80;20972;-65
2021/10/20 08:14:47;;;;;;;18.73;5.55;;;;;;;15.46;73.01;98892.45;2254736;79;21500;-66
2021/10/20 08:17:47;;;;;;;17.52;5.67;;;;;;;15.55;72.14;98882.44;2250823;78;20980;-65
2021/10/20 08:20:48;;;;;;;20.90;5.65;;;;;;;15.65;72.10;98883.86;2216769;80;20972;-68
2021/10/20 08:23:48;;;;;;;19.45;5.70;;;;;;;15.72;71.33;98879.76;2258169;79;20973;-65
2021/10/20 08:26:48;;;;;;;23.52;6.50;;;;;;;15.80;71.78;98870.39;2216517;80;20977;-65
2021/10/20 08:29:49;;;;;;;18.75;5.35;;;;;;;15.92;71.45;98874.69;2242601;79;20977;-65
2021/10/20 08:32:49;;;;;;;19.07;5.85;;;;;;;16.05;70.59;98862.61;2218025;80;21519;-66
2021/10/20 08:35:50;;;;;;;19.73;6.05;;;;;;;16.21;70.79;98866.95;2245162;79;21609;-66
2021/10/20 08:38:50;;;;;;;17.75;5.20;;;;;;;16.42;70.77;98855.52;2214566;80;20984;-65
2021/10/20 08:41:51;;;;;;;19.32;5.05;;;;;;;16.69;69.00;98856.79;2242379;79;21146;-65
2021/10/20 08:44:53;;;;;;;17.60;5.10;;;;;;;16.74;68.36;98854.60;2254387;79;21024;-65
2021/10/20 08:47:54;;;;;;;20.92;5.97;;;;;;;16.80;68.10;98846.94;2216375;80;21600;-67
2021/10/20 08:50:54;;;;;;;21.62;5.92;;;;;;;16.77;67.84;98856.48;2244467;79;21043;-65
2021/10/20 08:53:56;;;;;;;18.45;5.85;;;;;;;16.77;68.15;98847.70;2255196;78;21059;-65
2021/10/20 08:56:57;;;;;;;19.25;5.67;;;;;;;16.77;66.77;98831.33;2216170;80;20984;-66
2021/10/20 08:59:57;;;;;;;19.70;5.30;;;;;;;16.78;66.95;98821.09;2248961;79;21035;-65
2021/10/20 09:02:58;;;;;;;18.07;5.03;;;;;;;16.87;67.33;98829.22;2218240;80;20965;-65
2021/10/20 09:05:58;;;;;;;19.42;5.53;;;;;;;16.85;66.42;98828.02;2253253;79;20930;-65
2021/10/20 09:08:58;;;;;;;22.82;6.20;;;;;;;16.94;66.45;98827.73;2214079;80;20969;-65
2021/10/20 09:11:59;;;;;;;17.00;5.40;;;;;;;16.97;67.18;98840.22;2258835;79;20949;-65
2021/10/20 09:14:59;;;;;;;19.37;5.58;;;;;;;16.96;66.14;98826.61;2213152;80;21439;-67
2021/10/20 09:18:00;;;;;;;16.00;5.12;;;;;;;17.03;65.98;98831.39;2237013;79;20945;-65
2021/10/20 09:21:01;;;;;;;19.77;6.00;;;;;;;17.07;64.98;98823.53;2253163;79;21023;-68
2021/10/20 09:24:01;;;;;;;23.25;6.12;;;;;;;17.16;66.00;98822.70;2214182;80;20996;-66
2021/10/20 09:27:01;;;;;;;20.48;5.80;;;;;;;17.21;65.31;98812.55;2250167;79;20980;-64
2021/10/20 09:30:02;;;;;;;21.30;6.72;;;;;;;17.17;65.96;98812.92;2218531;80;20968;-65
2021/10/20 09:33:02;;;;;;;19.30;6.00;;;;;;;17.19;66.08;98816.30;2258498;79;21011;-65
2021/10/20 09:36:03;;;;;;;20.97;5.75;;;;;;;17.29;65.83;98796.77;2235404;78;20970;-65
2021/10/20 09:39:03;;;;;;;17.85;5.40;;;;;;;17.33;64.78;98804.48;2216210;80;21562;-65
2021/10/20 09:42:04;;;;;;;20.62;5.80;;;;;;;17.41;65.28;98808.58;2242066;79;21031;-65
2021/10/20 09:45:04;;;;;;;21.57;6.22;;;;;;;17.49;64.40;98774.27;2214042;80;20992;-66
2021/10/20 09:48:05;;;;;;;20.30;6.17;;;;;;;17.48;64.76;98783.19;2252916;79;20990;-65
2021/10/20 09:51:06;;;;;;;20.12;5.78;;;;;;;17.57;64.62;98778.39;2216620;80;20976;-65
2021/10/20 09:54:07;;;;;;;18.92;6.10;;;;;;;17.66;63.86;98782.85;2242247;79;21021;-65
2021/10/20 09:57:07;;;;;;;21.82;6.35;;;;;;;17.82;64.27;98789.41;2216962;80;20976;-66
2021/10/20 10:00:08;;;;;;;19.50;5.62;;;;;;;17.89;63.45;98789.20;2245622;79;20953;-66
2021/10/20 10:03:08;;;;;;;18.92;5.45;;;;;;;18.03;64.03;98778.67;2251060;78;20942;-65
2021/10/20 10:06:09;;;;;;;19.80;5.75;;;;;;;18.17;63.22;98772.06;2214536;80;20953;-65
2021/10/20 10:09:09;;;;;;;19.75;5.62;;;;;;;18.28;62.82;98773.72;2253809;79;20973;-65
2021/10/20 10:12:10;;;;;;;20.00;5.45;;;;;;;18.40;61.68;98754.47;2215680;80;20977;-66
2021/10/20 10:15:10;;;;;;;18.32;5.20;;;;;;;18.52;61.21;98753.31;2249407;79;21456;-65
2021/10/20 10:18:10;;;;;;;18.23;5.30;;;;;;;18.60;60.93;98756.55;2254578;79;20953;-65
2021/10/20 10:21:11;;;;;;;21.60;5.67;;;;;;;18.72;60.14;98752.73;2216090;80;21086;-65
2021/10/20 10:24:12;;;;;;;21.85;5.40;;;;;;;18.76;59.91;98744.81;2254380;79;21020;-65
2021/10/20 10:27:12;;;;;;;20.80;6.20;;;;;;;18.76;59.38;98739.50;2255793;78;21045;-65
2021/10/20 10:30:13;;;;;;;18.40;6.30;;;;;;;18.69;59.62;98743.23;2214066;80;21008;-66
2021/10/20 10:33:13;;;;;;;22.32;6.22;;;;;;;18.68;59.64;98723.46;2236228;79;21464;-68
2021/10/20 10:36:14;;;;;;;21.07;5.78;;;;;;;18.78;59.15;98725.56;2216111;80;21475;-65
2021/10/20 10:39:15;;;;;;;21.07;5.60;;;;;;;18.85;58.35;98714.69;2248585;79;21110;-65
2021/10/20 10:42:15;;;;;;;21.80;5.78;;;;;;;18.85;57.87;98719.17;2217206;80;20960;-65
2021/10/20 10:45:16;;;;;;;20.72;6.33;;;;;;;18.95;58.03;98719.98;2254679;79;20982;-65
2021/10/20 10:48:16;;;;;;;21.52;5.40;;;;;;;19.11;57.91;98717.16;2244853;79;21011;-66
2021/10/20 10:51:18;;;;;;;17.23;5.00;;;;;;;19.15;57.32;98713.18;2218450;80;21482;-65
2021/10/20 10:54:19;;;;;;;19.27;5.37;;;;;;;19.16;57.19;98701.06;2254471;79;21025;-65
2021/10/20 10:57:19;;;;;;;22.75;5.28;;;;;;;19.20;57.69;98705.60;2218146;80;21503;-65
2021/10/20 11:00:20;;;;;;;26.02;8.68;;;;;;;19.32;58.17;98703.55;2258176;79;20977;-66
2021/10/20 11:03:22;;;;;;;19.30;6.12;;;;;;;19.36;57.26;98696.42;2256472;78;21023;-65
2021/10/20 11:06:22;;;;;;;28.10;6.33;;;;;;;19.36;56.02;98708.39;2216575;80;21019;-66
2021/10/20 11:09:26;;;;;;;21.17;6.10;;;;;;;19.27;56.26;98685.39;2257051;79;21518;-66
2021/10/20 11:12:25;;;;;;;20.17;5.45;;;;;;;19.31;56.36;98685.44;2192064;80;20969;-65
2021/10/20 11:15:26;;;;;;;17.62;5.30;;;;;;;19.27;55.61;98692.04;2249365;79;21538;-65
2021/10/20 11:18:26;;;;;;;23.10;7.15;;;;;;;19.35;55.97;98682.81;2217269;80;21491;-66
2021/10/20 11:21:27;;;;;;;20.57;5.55;;;;;;;19.43;55.40;98673.23;2253317;79;21500;-65
2021/10/20 11:24:28;;;;;;;21.15;5.47;;;;;;;19.55;55.24;98674.64;2216125;80;21004;-65
2021/10/20 11:27:28;;;;;;;17.00;4.90;;;;;;;19.73;54.50;98654.66;2256994;79;20972;-65
2021/10/20 11:30:30;;;;;;;18.05;5.03;;;;;;;19.82;52.96;98670.21;2216037;80;21094;-65
2021/10/20 11:33:31;;;;;;;18.20;5.35;;;;;;;19.84;52.50;98686.37;2244082;79;20985;-65
2021/10/20 11:36:32;;;;;;;18.07;5.47;;;;;;;19.88;54.61;98668.25;2217030;80;20945;-66
2021/10/20 11:39:32;;;;;;;17.55;5.28;;;;;;;19.98;54.74;98661.48;2234582;79;21032;-65
2021/10/20 11:42:33;;;;;;;17.48;5.08;;;;;;;20.12;53.99;98648.91;2216311;80;20949;-66
2021/10/20 11:45:33;;;;;;;20.12;5.17;;;;;;;20.14;53.14;98644.77;2258838;79;20976;-65
2021/10/20 11:48:36;;;;;;;19.37;5.87;;;;;;;20.32;53.69;98615.39;2214941;80;20972;-65
2021/10/20 11:51:36;;;;;;;19.65;5.87;;;;;;;20.51;53.76;98627.09;2223499;79;21008;-65
2021/10/20 11:54:37;;;;;;;21.20;6.40;;;;;;;20.60;51.99;98619.95;2215410;80;20989;-65
2021/10/20 11:57:37;;;;;;;19.75;5.37;;;;;;;20.38;49.35;98643.52;2248383;79;21496;-65
2021/10/20 12:00:37;;;;;;;21.52;6.00;;;;;;;20.35;51.85;98617.73;2217649;80;20984;-65
2021/10/20 12:03:39;;;;;;;16.77;4.97;;;;;;;20.43;51.53;98619.92;2243834;79;20958;-66
2021/10/20 12:06:39;;;;;;;15.15;4.47;;;;;;;20.43;51.85;98607.93;2217873;80;20991;-65
2021/10/20 12:09:40;;;;;;;17.90;4.72;;;;;;;20.37;51.00;98599.27;2248112;79;20972;-65
2021/10/20 12:12:42;;;;;;;20.10;5.80;;;;;;;20.30;50.68;98601.39;2255028;78;21000;-66
2021/10/20 12:15:42;;;;;;;18.73;5.42;;;;;;;20.31;51.92;98599.89;2215689;80;20953;-65
2021/10/20 12:18:43;;;;;;;18.00;5.00;;;;;;;20.55;51.96;98596.47;2257675;79;21114;-66
2021/10/20 12:21:43;;;;;;;18.65;5.53;;;;;;;20.66;50.21;98595.34;2214682;80;20973;-65
2021/10/20 12:24:45;;;;;;;20.68;5.67;;;;;;;20.63;50.98;98581.49;2245026;79;20953;-68
2021/10/20 12:27:45;;;;;;;18.87;5.50;;;;;;;20.68;52.16;98575.22;2215134;80;21522;-65
2021/10/20 12:30:46;;;;;;;21.45;6.08;;;;;;;20.83;49.67;98571.39;2252079;79;20925;-65
2021/10/20 12:33:46;;;;;;;17.98;5.30;;;;;;;20.74;50.90;98565.22;2215773;80;20979;-65
2021/10/20 12:36:47;;;;;;;18.35;5.25;;;;;;;20.81;50.94;98558.23;2253350;79;21004;-65
2021/10/20 12:39:48;;;;;;;17.37;5.30;;;;;;;21.04;49.89;98561.58;2254932;78;21048;-66
2021/10/20 12:42:51;;;;;;;18.27;5.20;;;;;;;21.20;49.94;98552.73;2216788;80;21012;-65
2021/10/20 12:45:51;;;;;;;18.73;5.08;;;;;;;21.34;49.62;98536.03;2231603;79;20997;-64
2021/10/20 12:48:51;;;;;;;17.40;5.60;;;;;;;21.40;49.70;98536.69;2216480;80;21012;-66
2021/10/20 12:51:52;;;;;;;18.70;5.85;;;;;;;21.46;50.17;98537.84;2254520;79;20999;-67
2021/10/20 12:54:52;;;;;;;20.17;6.45;;;;;;;21.45;49.51;98533.52;2217075;80;21023;-69
2021/10/20 12:57:57;;;;;;;15.75;5.08;;;;;;;21.52;49.18;98524.34;2254515;79;20997;-65
2021/10/20 13:00:55;;;;;;;16.50;4.75;;;;;;;21.44;48.42;98516.67;2194712;80;20994;-65
2021/10/20 13:03:56;;;;;;;19.37;6.05;;;;;;;21.30;48.85;98494.70;2250442;79;20986;-65
2021/10/20 13:06:57;;;;;;;18.37;5.70;;;;;;;21.25;49.30;98512.55;2217061;80;21483;-65
2021/10/20 13:09:57;;;;;;;21.10;6.20;;;;;;;21.37;50.01;98498.86;2253350;79;21444;-66
2021/10/20 13:12:59;;;;;;;19.48;5.30;;;;;;;21.38;49.96;98488.02;2215878;80;21016;-70
2021/10/20 13:16:00;;;;;;;;;;;;;;;21.39;50.18;98484.36;2251553;78;20941;-66
2021/10/20 13:19:01;;;;;;;17.80;4.92;;;;;;;21.47;49.58;98478.16;2206986;80;20408;-66
2021/10/20 13:22:04;;;;;;;21.35;6.30;;;;;;;21.55;49.59;98480.83;2216269;80;21041;-65
2021/10/20 13:25:03;;;;;;;25.02;7.47;;;;;;;21.72;50.09;98484.75;2221477;79;21471;-66
2021/10/20 13:28:05;;;;;;;25.52;7.50;;;;;;;21.89;48.63;98462.31;2214419;80;21099;-66
2021/10/20 13:31:06;;;;;;;20.27;6.10;;;;;;;21.76;48.83;98462.88;2245570;79;20976;-67
2021/10/20 13:34:06;;;;;;;24.43;9.37;;;;;;;21.78;49.96;98459.55;2218948;80;21532;-65
2021/10/20 13:37:07;;;;;;;22.80;7.50;;;;;;;21.82;49.26;98448.52;2254058;79;20980;-69
2021/10/20 13:40:08;;;;;;;22.95;7.72;;;;;;;21.75;48.69;98454.56;2215053;80;21063;-66
2021/10/20 13:43:08;;;;;;;18.15;6.00;;;;;;;21.72;49.50;98450.06;2262707;79;20980;-65
2021/10/20 13:46:09;;;;;;;18.52;5.55;;;;;;;21.58;48.62;98447.64;2217999;80;21007;-65
2021/10/20 13:49:09;;;;;;;18.65;5.50;;;;;;;21.25;49.38;98462.39;2249761;79;21479;-69
2021/10/20 13:52:10;;;;;;;22.17;5.80;;;;;;;21.07;50.61;98463.92;2215673;80;21048;-66
2021/10/20 13:55:10;;;;;;;21.15;5.45;;;;;;;21.09;51.06;98457.94;2262089;79;20988;-66
2021/10/20 13:58:10;;;;;;;21.05;6.00;;;;;;;20.95;51.00;98452.78;2216839;80;20976;-67
2021/10/20 14:01:11;;;;;;;20.75;6.33;;;;;;;20.75;51.36;98455.80;2253855;79;21052;-66